sensor_id;sensor_type;location;lat;lon;timestamp;temperature;humidity
10883;DHT22;5494;51.796;10.952;2023-09-07T00:01:07;18.40;99.90
10883;DHT22;5494;51.796;10.952;2023-09-07T00:03:35;18.40;99.90
10883;DHT22;5494;51.796;10.952;2023-09-07T00:06:08;18.40;99.90
10883;DHT22;5494;51.796;10.952;2023-09-07T00:08:36;18.30;99.90
10883;DHT22;5494;51.796;10.952;2023-09-07T00:11:06;18.20;99.90
10883;DHT22;5494;51.796;10.952;2023-09-07T00:13:36;18.20;99.90
10883;DHT22;5494;51.796;10.952;2023-09-07T00:16:05;18.20;99.90
10883;DHT22;5494;51.796;10.952;2023-09-07T00:18:34;18.20;99.90
10883;DHT22;5494;51.796;10.952;2023-09-07T00:21:02;18.20;99.90
10883;DHT22;5494;51.796;10.952;2023-09-07T00:23:31;18.10;99.90
10883;DHT22;5494;51.796;10.952;2023-09-07T00:25:59;18.10;99.90
10883;DHT22;5494;51.796;10.952;2023-09-07T00:28:29;18.00;99.90
10883;DHT22;5494;51.796;10.952;2023-09-07T00:30:58;17.90;99.90
10883;DHT22;5494;51.796;10.952;2023-09-07T00:33:26;17.90;99.90
10883;DHT22;5494;51.796;10.952;2023-09-07T00:35:54;17.90;99.90
10883;DHT22;5494;51.796;10.952;2023-09-07T00:38:22;17.80;99.90
10883;DHT22;5494;51.796;10.952;2023-09-07T00:40:50;17.80;99.90
10883;DHT22;5494;51.796;10.952;2023-09-07T00:43:18;17.80;99.90
10883;DHT22;5494;51.796;10.952;2023-09-07T00:45:49;17.80;99.90
10883;DHT22;5494;51.796;10.952;2023-09-07T00:48:18;17.80;99.90
10883;DHT22;5494;51.796;10.952;2023-09-07T00:50:47;17.70;99.90
10883;DHT22;5494;51.796;10.952;2023-09-07T00:53:16;17.70;99.90
10883;DHT22;5494;51.796;10.952;2023-09-07T00:55:45;17.60;99.90
10883;DHT22;5494;51.796;10.952;2023-09-07T00:58:14;17.60;99.90
10883;DHT22;5494;51.796;10.952;2023-09-07T01:00:43;17.60;99.90
10883;DHT22;5494;51.796;10.952;2023-09-07T01:03:14;17.50;99.90
10883;DHT22;5494;51.796;10.952;2023-09-07T01:05:47;17.50;99.90
10883;DHT22;5494;51.796;10.952;2023-09-07T01:08:23;17.50;99.90
10883;DHT22;5494;51.796;10.952;2023-09-07T01:10:54;17.40;99.90
10883;DHT22;5494;51.796;10.952;2023-09-07T01:13:22;17.40;99.90
10883;DHT22;5494;51.796;10.952;2023-09-07T01:15:51;17.30;99.90
10883;DHT22;5494;51.796;10.952;2023-09-07T01:18:21;17.30;99.90
10883;DHT22;5494;51.796;10.952;2023-09-07T01:20:52;17.20;99.90
10883;DHT22;5494;51.796;10.952;2023-09-07T01:23:23;17.20;99.90
10883;DHT22;5494;51.796;10.952;2023-09-07T01:25:53;17.20;99.90
10883;DHT22;5494;51.796;10.952;2023-09-07T01:28:23;17.20;99.90
10883;DHT22;5494;51.796;10.952;2023-09-07T01:30:51;17.20;99.90
10883;DHT22;5494;51.796;10.952;2023-09-07T01:33:20;17.20;99.90
10883;DHT22;5494;51.796;10.952;2023-09-07T01:35:48;17.20;99.90
10883;DHT22;5494;51.796;10.952;2023-09-07T01:38:16;17.20;99.90
10883;DHT22;5494;51.796;10.952;2023-09-07T01:40:46;17.20;99.90
10883;DHT22;5494;51.796;10.952;2023-09-07T01:43:14;17.10;99.90
10883;DHT22;5494;51.796;10.952;2023-09-07T01:45:42;17.10;99.90
10883;DHT22;5494;51.796;10.952;2023-09-07T01:48:13;17.10;99.90
10883;DHT22;5494;51.796;10.952;2023-09-07T01:50:42;17.00;99.90
10883;DHT22;5494;51.796;10.952;2023-09-07T01:53:10;17.00;99.90
10883;DHT22;5494;51.796;10.952;2023-09-07T01:55:38;16.90;99.90
10883;DHT22;5494;51.796;10.952;2023-09-07T01:58:08;17.00;99.90
10883;DHT22;5494;51.796;10.952;2023-09-07T02:00:37;16.90;99.90
10883;DHT22;5494;51.796;10.952;2023-09-07T02:03:06;16.90;99.90
10883;DHT22;5494;51.796;10.952;2023-09-07T02:05:35;16.90;99.90
10883;DHT22;5494;51.796;10.952;2023-09-07T02:08:04;16.90;99.90
10883;DHT22;5494;51.796;10.952;2023-09-07T02:10:33;16.80;99.90
10883;DHT22;5494;51.796;10.952;2023-09-07T02:13:01;16.80;99.90
10883;DHT22;5494;51.796;10.952;2023-09-07T02:15:31;16.80;99.90
10883;DHT22;5494;51.796;10.952;2023-09-07T02:18:00;16.80;99.90
10883;DHT22;5494;51.796;10.952;2023-09-07T02:20:31;16.70;99.90
10883;DHT22;5494;51.796;10.952;2023-09-07T02:22:59;16.20;99.90
10883;DHT22;5494;51.796;10.952;2023-09-07T02:25:28;16.70;99.90
10883;DHT22;5494;51.796;10.952;2023-09-07T02:27:57;16.70;99.90
10883;DHT22;5494;51.796;10.952;2023-09-07T02:30:26;16.60;99.90
10883;DHT22;5494;51.796;10.952;2023-09-07T02:32:55;16.60;99.90
10883;DHT22;5494;51.796;10.952;2023-09-07T02:35:25;16.60;99.90
10883;DHT22;5494;51.796;10.952;2023-09-07T02:37:53;16.50;99.90
10883;DHT22;5494;51.796;10.952;2023-09-07T02:40:21;16.60;99.90
10883;DHT22;5494;51.796;10.952;2023-09-07T02:42:51;16.50;99.90
10883;DHT22;5494;51.796;10.952;2023-09-07T02:45:19;16.50;99.90
10883;DHT22;5494;51.796;10.952;2023-09-07T02:47:47;16.60;99.90
10883;DHT22;5494;51.796;10.952;2023-09-07T02:50:19;16.60;99.90
10883;DHT22;5494;51.796;10.952;2023-09-07T02:52:47;16.50;99.90
10883;DHT22;5494;51.796;10.952;2023-09-07T02:55:18;16.50;99.90
10883;DHT22;5494;51.796;10.952;2023-09-07T02:57:47;16.50;99.90
10883;DHT22;5494;51.796;10.952;2023-09-07T03:00:15;16.50;99.90
10883;DHT22;5494;51.796;10.952;2023-09-07T03:02:45;16.50;99.90
10883;DHT22;5494;51.796;10.952;2023-09-07T03:05:13;16.50;99.90
10883;DHT22;5494;51.796;10.952;2023-09-07T03:07:46;16.50;99.90
10883;DHT22;5494;51.796;10.952;2023-09-07T03:10:16;17.10;99.90
10883;DHT22;5494;51.796;10.952;2023-09-07T03:12:45;15.80;99.90
10883;DHT22;5494;51.796;10.952;2023-09-07T03:15:15;16.40;99.90
10883;DHT22;5494;51.796;10.952;2023-09-07T03:17:43;16.40;99.90
10883;DHT22;5494;51.796;10.952;2023-09-07T03:20:13;16.40;99.90
10883;DHT22;5494;51.796;10.952;2023-09-07T03:22:47;16.40;99.90
10883;DHT22;5494;51.796;10.952;2023-09-07T03:25:15;16.40;99.90
10883;DHT22;5494;51.796;10.952;2023-09-07T03:27:43;16.40;99.90
10883;DHT22;5494;51.796;10.952;2023-09-07T03:30:13;16.40;99.90
10883;DHT22;5494;51.796;10.952;2023-09-07T03:32:42;16.30;99.90
10883;DHT22;5494;51.796;10.952;2023-09-07T03:35:10;16.30;99.90
10883;DHT22;5494;51.796;10.952;2023-09-07T03:37:39;16.30;99.90
10883;DHT22;5494;51.796;10.952;2023-09-07T03:40:09;16.30;99.90
10883;DHT22;5494;51.796;10.952;2023-09-07T03:42:39;16.30;99.90
10883;DHT22;5494;51.796;10.952;2023-09-07T03:45:08;16.30;99.90
10883;DHT22;5494;51.796;10.952;2023-09-07T03:47:38;16.30;99.90
10883;DHT22;5494;51.796;10.952;2023-09-07T03:50:08;16.30;99.90
10883;DHT22;5494;51.796;10.952;2023-09-07T03:52:37;16.30;99.90
10883;DHT22;5494;51.796;10.952;2023-09-07T03:55:09;16.20;99.90
10883;DHT22;5494;51.796;10.952;2023-09-07T03:57:38;16.20;99.90
10883;DHT22;5494;51.796;10.952;2023-09-07T04:00:07;16.10;99.90
10883;DHT22;5494;51.796;10.952;2023-09-07T04:02:39;16.10;99.90
10883;DHT22;5494;51.796;10.952;2023-09-07T04:05:09;16.10;99.90
10883;DHT22;5494;51.796;10.952;2023-09-07T04:07:38;16.10;99.90
10883;DHT22;5494;51.796;10.952;2023-09-07T04:10:08;16.20;99.90
10883;DHT22;5494;51.796;10.952;2023-09-07T04:12:36;16.10;99.90
10883;DHT22;5494;51.796;10.952;2023-09-07T04:15:06;16.10;99.90
10883;DHT22;5494;51.796;10.952;2023-09-07T04:17:37;16.10;99.90
10883;DHT22;5494;51.796;10.952;2023-09-07T04:20:09;16.10;99.90
10883;DHT22;5494;51.796;10.952;2023-09-07T04:22:39;16.00;99.90
10883;DHT22;5494;51.796;10.952;2023-09-07T04:25:09;16.00;99.90
10883;DHT22;5494;51.796;10.952;2023-09-07T04:27:38;16.00;99.90
10883;DHT22;5494;51.796;10.952;2023-09-07T04:30:08;16.00;99.90
10883;DHT22;5494;51.796;10.952;2023-09-07T04:32:37;16.00;99.90
10883;DHT22;5494;51.796;10.952;2023-09-07T04:35:07;16.00;99.90
10883;DHT22;5494;51.796;10.952;2023-09-07T04:37:37;16.00;99.90
10883;DHT22;5494;51.796;10.952;2023-09-07T04:40:06;16.00;99.90
10883;DHT22;5494;51.796;10.952;2023-09-07T04:42:37;16.00;99.90
10883;DHT22;5494;51.796;10.952;2023-09-07T04:45:06;16.00;99.90
10883;DHT22;5494;51.796;10.952;2023-09-07T04:47:36;16.00;99.90
10883;DHT22;5494;51.796;10.952;2023-09-07T04:50:05;16.00;99.90
10883;DHT22;5494;51.796;10.952;2023-09-07T04:52:35;16.20;99.90
10883;DHT22;5494;51.796;10.952;2023-09-07T04:55:03;16.30;99.90
10883;DHT22;5494;51.796;10.952;2023-09-07T04:57:37;16.40;99.90
10883;DHT22;5494;51.796;10.952;2023-09-07T05:00:07;16.60;99.90
10883;DHT22;5494;51.796;10.952;2023-09-07T05:02:36;16.80;99.90
10883;DHT22;5494;51.796;10.952;2023-09-07T05:05:09;17.00;99.90
10883;DHT22;5494;51.796;10.952;2023-09-07T05:07:37;17.20;99.90
10883;DHT22;5494;51.796;10.952;2023-09-07T05:10:07;17.50;99.90
10883;DHT22;5494;51.796;10.952;2023-09-07T05:12:40;17.70;99.90
10883;DHT22;5494;51.796;10.952;2023-09-07T05:15:09;17.90;99.90
10883;DHT22;5494;51.796;10.952;2023-09-07T05:17:38;18.20;99.90
10883;DHT22;5494;51.796;10.952;2023-09-07T05:20:07;18.50;99.90
10883;DHT22;5494;51.796;10.952;2023-09-07T05:22:37;18.80;99.90
10883;DHT22;5494;51.796;10.952;2023-09-07T05:25:08;19.10;99.90
10883;DHT22;5494;51.796;10.952;2023-09-07T05:27:37;19.50;99.90
10883;DHT22;5494;51.796;10.952;2023-09-07T05:30:08;19.90;99.90
10883;DHT22;5494;51.796;10.952;2023-09-07T05:32:37;20.30;99.90
10883;DHT22;5494;51.796;10.952;2023-09-07T05:35:06;20.70;99.90
10883;DHT22;5494;51.796;10.952;2023-09-07T05:37:37;21.20;99.90
10883;DHT22;5494;51.796;10.952;2023-09-07T05:40:08;21.60;99.90
10883;DHT22;5494;51.796;10.952;2023-09-07T05:42:39;22.30;99.90
10883;DHT22;5494;51.796;10.952;2023-09-07T05:45:08;22.90;99.90
10883;DHT22;5494;51.796;10.952;2023-09-07T05:47:36;23.20;99.90
10883;DHT22;5494;51.796;10.952;2023-09-07T05:50:06;23.50;99.90
10883;DHT22;5494;51.796;10.952;2023-09-07T05:52:35;23.80;99.90
10883;DHT22;5494;51.796;10.952;2023-09-07T05:55:04;24.10;99.90
10883;DHT22;5494;51.796;10.952;2023-09-07T05:57:33;24.30;99.90
10883;DHT22;5494;51.796;10.952;2023-09-07T06:00:04;24.30;99.90
10883;DHT22;5494;51.796;10.952;2023-09-07T06:02:41;24.40;99.90
10883;DHT22;5494;51.796;10.952;2023-09-07T06:05:11;24.60;99.90
10883;DHT22;5494;51.796;10.952;2023-09-07T06:07:39;24.70;99.90
10883;DHT22;5494;51.796;10.952;2023-09-07T06:10:08;24.90;99.90
10883;DHT22;5494;51.796;10.952;2023-09-07T06:12:37;25.00;99.50
10883;DHT22;5494;51.796;10.952;2023-09-07T06:15:08;25.00;99.20
10883;DHT22;5494;51.796;10.952;2023-09-07T06:17:38;24.90;99.30
10883;DHT22;5494;51.796;10.952;2023-09-07T06:20:08;25.00;99.20
10883;DHT22;5494;51.796;10.952;2023-09-07T06:22:37;25.30;97.80
10883;DHT22;5494;51.796;10.952;2023-09-07T06:25:05;25.50;97.10
10883;DHT22;5494;51.796;10.952;2023-09-07T06:27:34;25.60;97.00
10883;DHT22;5494;51.796;10.952;2023-09-07T06:30:03;25.80;95.60
10883;DHT22;5494;51.796;10.952;2023-09-07T06:32:33;26.40;94.50
10883;DHT22;5494;51.796;10.952;2023-09-07T06:35:02;26.80;93.70
10883;DHT22;5494;51.796;10.952;2023-09-07T06:37:31;26.90;93.10
10883;DHT22;5494;51.796;10.952;2023-09-07T06:39:59;27.30;91.10
10883;DHT22;5494;51.796;10.952;2023-09-07T06:42:28;27.50;91.10
10883;DHT22;5494;51.796;10.952;2023-09-07T06:45:04;27.70;89.70
10883;DHT22;5494;51.796;10.952;2023-09-07T06:47:34;27.80;88.60
10883;DHT22;5494;51.796;10.952;2023-09-07T06:50:03;27.60;87.90
10883;DHT22;5494;51.796;10.952;2023-09-07T06:52:33;27.40;90.50
10883;DHT22;5494;51.796;10.952;2023-09-07T06:55:01;27.40;86.10
10883;DHT22;5494;51.796;10.952;2023-09-07T06:57:30;27.20;89.70
10883;DHT22;5494;51.796;10.952;2023-09-07T06:59:58;26.90;88.70
10883;DHT22;5494;51.796;10.952;2023-09-07T07:02:26;26.60;90.20
10883;DHT22;5494;51.796;10.952;2023-09-07T07:04:56;26.40;91.90
10883;DHT22;5494;51.796;10.952;2023-09-07T07:07:24;26.80;91.90
10883;DHT22;5494;51.796;10.952;2023-09-07T07:09:52;26.50;91.40
10883;DHT22;5494;51.796;10.952;2023-09-07T07:12:21;26.20;92.30
10883;DHT22;5494;51.796;10.952;2023-09-07T07:14:49;26.20;92.70
10883;DHT22;5494;51.796;10.952;2023-09-07T07:17:18;26.20;91.30
10883;DHT22;5494;51.796;10.952;2023-09-07T07:19:46;25.90;92.20
10883;DHT22;5494;51.796;10.952;2023-09-07T07:22:16;26.00;92.60
10883;DHT22;5494;51.796;10.952;2023-09-07T07:24:48;26.30;93.00
10883;DHT22;5494;51.796;10.952;2023-09-07T07:27:19;26.50;91.40
10883;DHT22;5494;51.796;10.952;2023-09-07T07:29:48;26.30;93.10
10883;DHT22;5494;51.796;10.952;2023-09-07T07:32:16;26.50;91.80
10883;DHT22;5494;51.796;10.952;2023-09-07T07:34:46;26.50;91.70
10883;DHT22;5494;51.796;10.952;2023-09-07T07:37:16;26.30;92.20
10883;DHT22;5494;51.796;10.952;2023-09-07T07:39:44;26.00;92.90
10883;DHT22;5494;51.796;10.952;2023-09-07T07:42:13;25.90;94.20
10883;DHT22;5494;51.796;10.952;2023-09-07T07:44:42;26.20;94.10
10883;DHT22;5494;51.796;10.952;2023-09-07T07:47:11;26.90;92.00
10883;DHT22;5494;51.796;10.952;2023-09-07T07:49:39;27.00;92.00
10883;DHT22;5494;51.796;10.952;2023-09-07T07:52:08;27.10;92.10
10883;DHT22;5494;51.796;10.952;2023-09-07T07:54:37;27.10;90.10
10883;DHT22;5494;51.796;10.952;2023-09-07T07:57:06;27.10;91.70
10883;DHT22;5494;51.796;10.952;2023-09-07T07:59:34;27.20;91.40
10883;DHT22;5494;51.796;10.952;2023-09-07T08:02:04;27.60;90.30
10883;DHT22;5494;51.796;10.952;2023-09-07T08:04:32;27.50;90.40
10883;DHT22;5494;51.796;10.952;2023-09-07T08:07:03;27.60;91.10
10883;DHT22;5494;51.796;10.952;2023-09-07T08:09:33;27.80;89.20
10883;DHT22;5494;51.796;10.952;2023-09-07T08:12:04;28.40;85.10
10883;DHT22;5494;51.796;10.952;2023-09-07T08:14:35;27.70;87.90
10883;DHT22;5494;51.796;10.952;2023-09-07T08:17:04;27.40;90.10
10883;DHT22;5494;51.796;10.952;2023-09-07T08:19:32;27.40;88.70
10883;DHT22;5494;51.796;10.952;2023-09-07T08:22:01;27.10;90.60
10883;DHT22;5494;51.796;10.952;2023-09-07T08:24:31;27.20;90.40
10883;DHT22;5494;51.796;10.952;2023-09-07T08:27:00;27.60;88.10
10883;DHT22;5494;51.796;10.952;2023-09-07T08:29:30;27.30;88.90
10883;DHT22;5494;51.796;10.952;2023-09-07T08:31:59;26.80;90.40
10883;DHT22;5494;51.796;10.952;2023-09-07T08:34:30;26.70;92.50
10883;DHT22;5494;51.796;10.952;2023-09-07T08:36:58;27.50;92.10
10883;DHT22;5494;51.796;10.952;2023-09-07T08:39:27;28.60;85.00
10883;DHT22;5494;51.796;10.952;2023-09-07T08:41:56;29.20;82.90
10883;DHT22;5494;51.796;10.952;2023-09-07T08:44:30;29.20;78.00
10883;DHT22;5494;51.796;10.952;2023-09-07T08:47:02;28.80;81.60
10883;DHT22;5494;51.796;10.952;2023-09-07T08:49:32;28.70;81.50
10883;DHT22;5494;51.796;10.952;2023-09-07T08:52:02;28.50;83.60
10883;DHT22;5494;51.796;10.952;2023-09-07T08:54:33;27.80;88.00
10883;DHT22;5494;51.796;10.952;2023-09-07T08:57:03;27.70;89.40
10883;DHT22;5494;51.796;10.952;2023-09-07T08:59:33;27.70;90.50
10883;DHT22;5494;51.796;10.952;2023-09-07T09:02:01;27.40;89.30
10883;DHT22;5494;51.796;10.952;2023-09-07T09:04:31;27.70;91.10
10883;DHT22;5494;51.796;10.952;2023-09-07T09:07:01;28.10;88.50
10883;DHT22;5494;51.796;10.952;2023-09-07T09:09:30;28.80;86.00
10883;DHT22;5494;51.796;10.952;2023-09-07T09:12:06;28.90;83.10
10883;DHT22;5494;51.796;10.952;2023-09-07T09:14:37;28.70;85.80
10883;DHT22;5494;51.796;10.952;2023-09-07T09:17:05;29.10;84.10
10883;DHT22;5494;51.796;10.952;2023-09-07T09:19:34;29.60;79.00
10883;DHT22;5494;51.796;10.952;2023-09-07T09:22:04;29.90;77.50
10883;DHT22;5494;51.796;10.952;2023-09-07T09:24:32;29.50;81.20
10883;DHT22;5494;51.796;10.952;2023-09-07T09:27:01;30.10;78.70
10883;DHT22;5494;51.796;10.952;2023-09-07T09:29:32;30.50;75.20
10883;DHT22;5494;51.796;10.952;2023-09-07T09:32:03;30.80;73.70
10883;DHT22;5494;51.796;10.952;2023-09-07T09:34:33;30.20;75.20
10883;DHT22;5494;51.796;10.952;2023-09-07T09:37:02;29.30;80.20
10883;DHT22;5494;51.796;10.952;2023-09-07T09:39:31;28.80;82.70
10883;DHT22;5494;51.796;10.952;2023-09-07T09:41:59;29.20;82.20
10883;DHT22;5494;51.796;10.952;2023-09-07T09:44:29;29.40;83.30
10883;DHT22;5494;51.796;10.952;2023-09-07T09:46:59;29.30;84.70
10883;DHT22;5494;51.796;10.952;2023-09-07T09:49:29;29.50;82.10
10883;DHT22;5494;51.796;10.952;2023-09-07T09:52:01;29.90;78.80
10883;DHT22;5494;51.796;10.952;2023-09-07T09:54:33;29.70;78.60
10883;DHT22;5494;51.796;10.952;2023-09-07T09:57:03;30.00;76.90
10883;DHT22;5494;51.796;10.952;2023-09-07T09:59:32;30.00;75.50
10883;DHT22;5494;51.796;10.952;2023-09-07T10:02:02;29.80;76.70
10883;DHT22;5494;51.796;10.952;2023-09-07T10:04:33;29.70;80.00
10883;DHT22;5494;51.796;10.952;2023-09-07T10:07:05;29.40;80.30
10883;DHT22;5494;51.796;10.952;2023-09-07T10:09:33;29.20;79.20
10883;DHT22;5494;51.796;10.952;2023-09-07T10:12:04;29.40;78.50
10883;DHT22;5494;51.796;10.952;2023-09-07T10:14:43;29.60;77.70
10883;DHT22;5494;51.796;10.952;2023-09-07T10:17:22;29.50;75.50
10883;DHT22;5494;51.796;10.952;2023-09-07T10:20:02;29.30;77.30
10883;DHT22;5494;51.796;10.952;2023-09-07T10:22:33;30.00;75.20
10883;DHT22;5494;51.796;10.952;2023-09-07T10:25:01;30.60;70.90
10883;DHT22;5494;51.796;10.952;2023-09-07T10:27:36;29.80;75.00
10883;DHT22;5494;51.796;10.952;2023-09-07T10:30:10;29.30;76.40
10883;DHT22;5494;51.796;10.952;2023-09-07T10:32:39;28.80;76.90
10883;DHT22;5494;51.796;10.952;2023-09-07T10:35:15;28.40;81.40
10883;DHT22;5494;51.796;10.952;2023-09-07T10:37:45;28.70;78.50
10883;DHT22;5494;51.796;10.952;2023-09-07T10:40:19;28.70;76.80
10883;DHT22;5494;51.796;10.952;2023-09-07T10:42:48;28.40;78.20
10883;DHT22;5494;51.796;10.952;2023-09-07T10:45:16;28.50;80.90
10883;DHT22;5494;51.796;10.952;2023-09-07T10:47:45;28.20;79.80
10883;DHT22;5494;51.796;10.952;2023-09-07T10:50:15;27.70;81.50
10883;DHT22;5494;51.796;10.952;2023-09-07T10:52:43;27.50;83.50
10883;DHT22;5494;51.796;10.952;2023-09-07T10:55:11;27.30;86.20
10883;DHT22;5494;51.796;10.952;2023-09-07T10:57:43;27.30;87.80
10883;DHT22;5494;51.796;10.952;2023-09-07T11:00:13;27.00;87.80
10883;DHT22;5494;51.796;10.952;2023-09-07T11:02:42;27.00;85.10
10883;DHT22;5494;51.796;10.952;2023-09-07T11:05:11;27.00;88.60
10883;DHT22;5494;51.796;10.952;2023-09-07T11:07:40;26.90;86.20
10883;DHT22;5494;51.796;10.952;2023-09-07T11:10:10;26.70;90.10
10883;DHT22;5494;51.796;10.952;2023-09-07T11:12:39;26.60;89.40
10883;DHT22;5494;51.796;10.952;2023-09-07T11:15:09;26.50;89.70
10883;DHT22;5494;51.796;10.952;2023-09-07T11:17:38;26.50;90.30
10883;DHT22;5494;51.796;10.952;2023-09-07T11:20:07;26.60;90.10
10883;DHT22;5494;51.796;10.952;2023-09-07T11:22:37;26.50;90.20
10883;DHT22;5494;51.796;10.952;2023-09-07T11:25:26;26.30;91.00
10883;DHT22;5494;51.796;10.952;2023-09-07T11:27:54;26.30;90.80
10883;DHT22;5494;51.796;10.952;2023-09-07T11:30:26;26.40;90.50
10883;DHT22;5494;51.796;10.952;2023-09-07T11:33:00;26.40;89.30
10883;DHT22;5494;51.796;10.952;2023-09-07T11:35:29;26.30;91.00
10883;DHT22;5494;51.796;10.952;2023-09-07T11:37:59;26.30;91.10
10883;DHT22;5494;51.796;10.952;2023-09-07T11:40:29;26.50;90.90
10883;DHT22;5494;51.796;10.952;2023-09-07T11:42:58;26.50;87.90
10883;DHT22;5494;51.796;10.952;2023-09-07T11:45:26;26.40;88.20
10883;DHT22;5494;51.796;10.952;2023-09-07T11:47:54;26.40;90.70
10883;DHT22;5494;51.796;10.952;2023-09-07T11:50:23;26.50;89.70
10883;DHT22;5494;51.796;10.952;2023-09-07T11:52:52;26.50;88.90
10883;DHT22;5494;51.796;10.952;2023-09-07T11:55:20;26.60;88.70
10883;DHT22;5494;51.796;10.952;2023-09-07T11:57:50;26.40;87.00
10883;DHT22;5494;51.796;10.952;2023-09-07T12:00:18;26.30;90.00
10883;DHT22;5494;51.796;10.952;2023-09-07T12:02:49;26.20;88.00
10883;DHT22;5494;51.796;10.952;2023-09-07T12:05:18;26.30;88.60
10883;DHT22;5494;51.796;10.952;2023-09-07T12:07:46;26.30;86.40
10883;DHT22;5494;51.796;10.952;2023-09-07T12:10:14;26.40;87.40
10883;DHT22;5494;51.796;10.952;2023-09-07T12:12:43;26.60;87.50
10883;DHT22;5494;51.796;10.952;2023-09-07T12:15:12;26.60;86.40
10883;DHT22;5494;51.796;10.952;2023-09-07T12:17:40;26.60;86.40
10883;DHT22;5494;51.796;10.952;2023-09-07T12:20:10;26.50;87.20
10883;DHT22;5494;51.796;10.952;2023-09-07T12:22:40;26.50;87.80
10883;DHT22;5494;51.796;10.952;2023-09-07T12:25:08;26.50;88.30
10883;DHT22;5494;51.796;10.952;2023-09-07T12:27:45;26.50;87.80
10883;DHT22;5494;51.796;10.952;2023-09-07T12:30:20;26.70;87.50
10883;DHT22;5494;51.796;10.952;2023-09-07T12:32:51;26.60;84.60
10883;DHT22;5494;51.796;10.952;2023-09-07T12:35:20;26.70;84.10
10883;DHT22;5494;51.796;10.952;2023-09-07T12:37:48;26.70;84.50
10883;DHT22;5494;51.796;10.952;2023-09-07T12:40:16;26.80;86.80
10883;DHT22;5494;51.796;10.952;2023-09-07T12:42:45;26.90;84.00
10883;DHT22;5494;51.796;10.952;2023-09-07T12:45:14;27.00;82.10
10883;DHT22;5494;51.796;10.952;2023-09-07T12:47:43;26.90;82.30
10883;DHT22;5494;51.796;10.952;2023-09-07T12:50:12;27.00;83.60
10883;DHT22;5494;51.796;10.952;2023-09-07T12:52:40;26.90;81.40
10883;DHT22;5494;51.796;10.952;2023-09-07T12:55:09;26.80;84.60
10883;DHT22;5494;51.796;10.952;2023-09-07T12:57:37;26.90;80.90
10883;DHT22;5494;51.796;10.952;2023-09-07T13:00:08;26.90;79.30
10883;DHT22;5494;51.796;10.952;2023-09-07T13:02:40;26.90;77.10
10883;DHT22;5494;51.796;10.952;2023-09-07T13:05:10;26.90;79.60
10883;DHT22;5494;51.796;10.952;2023-09-07T13:07:38;27.00;80.30
10883;DHT22;5494;51.796;10.952;2023-09-07T13:10:08;27.10;81.50
10883;DHT22;5494;51.796;10.952;2023-09-07T13:12:36;27.10;80.00
10883;DHT22;5494;51.796;10.952;2023-09-07T13:15:05;27.00;80.10
10883;DHT22;5494;51.796;10.952;2023-09-07T13:17:34;27.00;79.40
10883;DHT22;5494;51.796;10.952;2023-09-07T13:20:02;27.00;83.20
10883;DHT22;5494;51.796;10.952;2023-09-07T13:22:32;27.00;80.20
10883;DHT22;5494;51.796;10.952;2023-09-07T13:25:00;27.00;79.10
10883;DHT22;5494;51.796;10.952;2023-09-07T13:27:28;27.00;80.10
10883;DHT22;5494;51.796;10.952;2023-09-07T13:29:57;27.00;78.00
10883;DHT22;5494;51.796;10.952;2023-09-07T13:32:26;27.10;78.90
10883;DHT22;5494;51.796;10.952;2023-09-07T13:34:54;27.10;78.00
10883;DHT22;5494;51.796;10.952;2023-09-07T13:37:23;27.10;77.80
10883;DHT22;5494;51.796;10.952;2023-09-07T13:39:52;27.10;76.20
10883;DHT22;5494;51.796;10.952;2023-09-07T13:42:20;27.10;76.20
10883;DHT22;5494;51.796;10.952;2023-09-07T13:44:48;27.10;74.30
10883;DHT22;5494;51.796;10.952;2023-09-07T13:47:17;27.10;74.30
10883;DHT22;5494;51.796;10.952;2023-09-07T13:49:45;27.10;75.40
10883;DHT22;5494;51.796;10.952;2023-09-07T13:52:13;27.20;76.10
10883;DHT22;5494;51.796;10.952;2023-09-07T13:54:41;27.20;75.30
10883;DHT22;5494;51.796;10.952;2023-09-07T13:57:10;27.20;75.10
10883;DHT22;5494;51.796;10.952;2023-09-07T13:59:39;27.20;73.80
10883;DHT22;5494;51.796;10.952;2023-09-07T14:02:10;27.20;73.90
10883;DHT22;5494;51.796;10.952;2023-09-07T14:04:38;27.20;75.30
10883;DHT22;5494;51.796;10.952;2023-09-07T14:07:06;27.30;75.00
10883;DHT22;5494;51.796;10.952;2023-09-07T14:09:34;27.30;73.60
10883;DHT22;5494;51.796;10.952;2023-09-07T14:12:03;27.30;76.80
10883;DHT22;5494;51.796;10.952;2023-09-07T14:14:33;27.30;76.20
10883;DHT22;5494;51.796;10.952;2023-09-07T14:17:01;27.40;74.90
10883;DHT22;5494;51.796;10.952;2023-09-07T14:19:29;27.40;73.90
10883;DHT22;5494;51.796;10.952;2023-09-07T14:21:58;27.40;76.30
10883;DHT22;5494;51.796;10.952;2023-09-07T14:24:27;27.40;74.50
10883;DHT22;5494;51.796;10.952;2023-09-07T14:26:55;27.40;73.30
10883;DHT22;5494;51.796;10.952;2023-09-07T14:29:23;27.50;74.90
10883;DHT22;5494;51.796;10.952;2023-09-07T14:31:54;27.50;71.30
10883;DHT22;5494;51.796;10.952;2023-09-07T14:34:23;27.50;73.10
10883;DHT22;5494;51.796;10.952;2023-09-07T14:36:52;27.50;72.20
10883;DHT22;5494;51.796;10.952;2023-09-07T14:39:22;27.60;73.30
10883;DHT22;5494;51.796;10.952;2023-09-07T14:41:51;27.50;72.30
10883;DHT22;5494;51.796;10.952;2023-09-07T14:44:20;27.50;73.10
10883;DHT22;5494;51.796;10.952;2023-09-07T14:46:49;27.50;70.60
10883;DHT22;5494;51.796;10.952;2023-09-07T14:49:19;27.60;72.80
10883;DHT22;5494;51.796;10.952;2023-09-07T14:51:47;27.50;73.00
10883;DHT22;5494;51.796;10.952;2023-09-07T14:54:15;27.50;74.50
10883;DHT22;5494;51.796;10.952;2023-09-07T14:56:44;27.50;72.50
10883;DHT22;5494;51.796;10.952;2023-09-07T14:59:12;27.50;72.90
10883;DHT22;5494;51.796;10.952;2023-09-07T15:01:40;27.50;72.70
10883;DHT22;5494;51.796;10.952;2023-09-07T15:04:16;27.60;73.90
10883;DHT22;5494;51.796;10.952;2023-09-07T15:06:46;27.60;72.30
10883;DHT22;5494;51.796;10.952;2023-09-07T15:09:14;27.50;73.00
10883;DHT22;5494;51.796;10.952;2023-09-07T15:11:42;27.50;74.10
10883;DHT22;5494;51.796;10.952;2023-09-07T15:14:10;27.50;73.20
10883;DHT22;5494;51.796;10.952;2023-09-07T15:16:39;27.50;73.70
10883;DHT22;5494;51.796;10.952;2023-09-07T15:19:07;27.50;74.60
10883;DHT22;5494;51.796;10.952;2023-09-07T15:21:35;27.50;74.40
10883;DHT22;5494;51.796;10.952;2023-09-07T15:24:05;27.50;74.60
10883;DHT22;5494;51.796;10.952;2023-09-07T15:26:40;27.50;74.70
10883;DHT22;5494;51.796;10.952;2023-09-07T15:29:09;27.50;75.50
10883;DHT22;5494;51.796;10.952;2023-09-07T15:31:38;27.50;74.50
10883;DHT22;5494;51.796;10.952;2023-09-07T15:34:08;27.40;75.10
10883;DHT22;5494;51.796;10.952;2023-09-07T15:36:37;27.30;73.80
10883;DHT22;5494;51.796;10.952;2023-09-07T15:39:06;27.20;75.50
10883;DHT22;5494;51.796;10.952;2023-09-07T15:41:34;27.20;74.90
10883;DHT22;5494;51.796;10.952;2023-09-07T15:44:03;27.20;75.40